EDT,Max TemperatureF,Mean TemperatureF,Min TemperatureF,Max Dew PointF,MeanDew PointF,Min DewpointF,Max Humidity, Mean Humidity, Min Humidity, Max Sea Level PressureIn, Mean Sea Level PressureIn, Min Sea Level PressureIn, Max VisibilityMiles, Mean VisibilityMiles, Min VisibilityMiles, Max Wind SpeedMPH, Mean Wind SpeedMPH, Max Gust SpeedMPH,PrecipitationIn, CloudCover, Events, WindDirDegrees
2012-10-1,66,52,38,47,42,37,100,69,37,29.97,29.92,29.89,10,9,2,9,4,14,0.01,2,,229
2012-10-2,68,61,54,61,57,48,100,91,81,29.95,29.90,29.84,10,9,2,14,7,20,0.03,8,Rain,118
2012-10-3,74,67,60,63,60,57,100,81,61,30.15,30.04,29.93,10,8,1,15,6,20,0.00,6,,194
2012-10-4,71,63,54,58,53,48,93,70,47,30.18,30.15,30.12,10,10,6,18,6,23,0.00,2,,250
2012-10-5,72,63,53,56,53,49,89,71,53,30.11,30.03,29.87,10,10,10,18,8,23,0.00,3,,231
2012-10-6,64,51,37,55,43,31,93,69,44,30.10,29.92,29.78,10,8,2,22,10,28,0.19,6,Rain,282
2012-10-7,47,41,34,37,35,32,92,75,58,30.18,30.09,30.03,10,9,1,15,6,20,0.05,7,Rain,253
2012-10-8,46,41,35,36,34,32,100,80,60,30.28,30.22,30.14,10,9,2,10,4,13,0.00,6,,220
2012-10-9,58,49,39,39,36,33,92,68,43,30.22,30.13,30.02,10,10,10,14,5,18,0.00,3,,154
2012-10-10,53,47,40,45,40,33,93,81,68,30.09,29.94,29.88,10,9,2,25,10,37,0.04,6,Rain,246
2012-10-11,52,42,31,32,29,26,85,62,38,30.27,30.18,30.11,10,10,10,18,9,24,0.00,1,,250
2012-10-12,49,40,30,37,30,18,86,60,33,30.45,30.23,30.10,10,10,9,21,9,30,0.02,4,Rain,310
2012-10-13,57,41,25,36,27,20,75,57,38,30.45,30.33,30.11,10,10,10,14,8,20,0.00,1,,126
2012-10-14,73,63,53,54,49,38,67,59,51,30.08,29.95,29.71,10,10,10,21,11,35,0.01,5,,207
2012-10-15,68,56,44,54,46,39,93,73,52,29.85,29.74,29.61,10,10,3,25,13,32,0.10,8,Rain,263
2012-10-16,53,46,39,43,39,34,96,75,54,29.95,29.89,29.83,10,9,5,13,6,18,0.06,6,Rain,286
2012-10-17,67,51,34,40,35,32,92,60,28,29.96,29.90,29.83,10,10,10,13,6,17,0.00,0,,137
2012-10-18,63,52,41,46,44,40,93,73,52,29.87,29.79,29.71,10,9,2,23,10,32,0.55,4,Rain,139
2012-10-19,64,52,40,47,39,32,100,65,30,29.82,29.75,29.62,10,5,0,24,5,31,0.04,5,Fog,110
2012-10-20,50,46,42,43,39,37,83,72,61,29.88,29.74,29.68,10,10,3,22,12,29,0.10,7,Rain,235
2012-10-21,55,47,39,43,39,36,85,68,50,30.14,30.03,29.90,10,10,10,16,8,22,0.00,7,,257
2012-10-22,66,51,36,45,40,34,85,64,42,30.20,30.14,30.09,10,10,10,13,4,15,0.00,0,,234
2012-10-23,69,61,53,55,50,45,93,70,47,30.09,30.06,30.01,10,10,10,18,4,23,0.01,6,Rain,234
2012-10-24,71,63,54,53,51,48,93,73,53,30.13,30.10,30.07,10,10,10,13,4,16,0.00,6,,236
2012-10-25,79,66,53,53,50,47,86,59,32,30.14,30.10,30.04,10,10,6,15,7,21,0.00,0,,138
2012-10-26,72,64,56,54,53,51,93,71,49,30.11,30.06,30.01,10,8,4,14,7,18,0.00,3,,130
2012-10-27,62,54,45,54,49,43,93,79,64,30.02,29.96,29.90,10,8,3,15,9,21,0.02,8,,81
2012-10-28,45,43,41,42,40,38,96,89,82,29.97,29.90,29.81,10,9,3,18,11,23,0.14,8,Rain,24
2012-10-29,42,40,37,39,37,34,93,89,85,29.81,29.46,28.94,10,6,2,33,17,52,2.79,8,Rain,343
2012-10-30,48,41,34,43,37,32,96,89,82,29.38,29.13,28.87,10,9,5,31,9,44,0.24,8,Rain,78
2012-10-31,37,35,32,36,33,30,96,91,85,29.58,29.44,29.35,10,5,1,21,10,26,0.11,8,Snow,212